createdAt,value
2019-03-15T00:01:13.496Z,71.81
2019-03-15T00:03:45.269Z,71.66
2019-03-15T00:06:16.184Z,71.68
2019-03-15T00:08:47.083Z,71.62
2019-03-15T00:11:18.049Z,71.60
2019-03-15T00:13:48.929Z,71.82
2019-03-15T00:16:19.903Z,71.69
2019-03-15T00:18:50.828Z,71.60
2019-03-15T00:21:21.740Z,71.60
2019-03-15T00:23:52.629Z,71.51
2019-03-15T00:26:23.586Z,71.50
2019-03-15T00:28:54.484Z,71.50
2019-03-15T00:31:25.420Z,71.62
2019-03-15T00:33:56.311Z,71.62
2019-03-15T00:36:27.236Z,71.68
2019-03-15T00:38:59.176Z,71.66
2019-03-15T00:41:30.123Z,71.74
2019-03-15T00:44:01.027Z,71.88
2019-03-15T00:46:31.950Z,71.65
2019-03-15T00:49:02.836Z,71.73
2019-03-15T00:51:41.653Z,71.83
2019-03-15T00:54:06.361Z,71.95
2019-03-15T00:56:37.408Z,72.19
2019-03-15T00:59:08.300Z,72.26
2019-03-15T01:01:39.234Z,72.21
2019-03-15T01:04:10.123Z,71.93
2019-03-15T01:06:41.048Z,71.75
2019-03-15T01:09:11.936Z,71.89
2019-03-15T01:11:45.701Z,71.74
2019-03-15T01:14:16.788Z,71.83
2019-03-15T01:16:47.717Z,71.75
2019-03-15T01:19:18.606Z,71.81
2019-03-15T01:21:49.547Z,71.93
2019-03-15T01:24:20.428Z,71.78
2019-03-15T01:26:52.205Z,71.70
2019-03-15T01:29:23.100Z,71.85
2019-03-15T01:31:54.015Z,72.09
2019-03-15T01:34:24.898Z,71.96
2019-03-15T01:36:55.834Z,71.95
2019-03-15T01:39:26.712Z,71.92
2019-03-15T01:41:58.550Z,71.79
2019-03-15T01:44:29.449Z,71.84
2019-03-15T01:47:00.367Z,71.94
2019-03-15T01:49:31.271Z,72.02
2019-03-15T01:52:02.194Z,72.22
2019-03-15T01:54:33.086Z,72.14
2019-03-15T01:57:05.877Z,71.93
2019-03-15T01:59:36.789Z,71.88
2019-03-15T02:02:07.777Z,72.08
2019-03-15T02:04:38.665Z,72.01
2019-03-15T02:07:09.660Z,71.94
2019-03-15T02:09:40.559Z,71.82
2019-03-15T02:12:11.582Z,71.73
2019-03-15T02:14:42.401Z,71.64
2019-03-15T02:17:13.324Z,71.80
2019-03-15T02:19:44.215Z,71.67
2019-03-15T02:22:15.133Z,71.72
2019-03-15T02:24:46.032Z,71.90
2019-03-15T02:27:17.810Z,72.17
2019-03-15T02:29:48.778Z,72.47
2019-03-15T02:32:19.689Z,72.43
2019-03-15T02:34:50.575Z,72.50
2019-03-15T02:37:21.486Z,72.72
2019-03-15T02:39:52.451Z,73.03
2019-03-15T02:42:26.221Z,72.94
2019-03-15T02:44:55.992Z,72.75
2019-03-15T02:47:26.915Z,72.49
2019-03-15T02:49:57.809Z,73.34
2019-03-15T02:52:28.730Z,73.57
2019-03-15T02:54:59.548Z,73.67
2019-03-15T02:57:31.340Z,73.49
2019-03-15T03:00:02.232Z,73.33
2019-03-15T03:02:33.156Z,73.29
2019-03-15T03:05:08.378Z,73.02
2019-03-15T03:07:39.276Z,72.93
2019-03-15T03:10:10.373Z,72.87
2019-03-15T03:12:42.110Z,72.76
2019-03-15T03:15:13.011Z,72.58
2019-03-15T03:17:43.928Z,72.64
2019-03-15T03:20:14.820Z,73.07
2019-03-15T03:22:45.751Z,73.13
2019-03-15T03:25:17.353Z,73.40
2019-03-15T03:27:49.571Z,73.82
2019-03-15T03:30:20.504Z,74.09
2019-03-15T03:32:51.429Z,74.19
2019-03-15T03:35:22.321Z,74.03
2019-03-15T03:37:53.228Z,73.86
2019-03-15T03:40:24.117Z,74.06
2019-03-15T03:42:55.064Z,73.87
2019-03-15T03:45:25.957Z,73.76
2019-03-15T03:47:57.801Z,73.97
2019-03-15T03:50:28.806Z,74.02
2019-03-15T03:52:59.699Z,74.08
2019-03-15T03:55:30.679Z,74.19
2019-03-15T03:58:02.389Z,74.09
2019-03-15T04:00:33.414Z,74.19
2019-03-15T04:03:04.335Z,74.00
2019-03-15T04:05:35.227Z,73.99
2019-03-15T04:08:06.160Z,74.20
2019-03-15T04:10:37.050Z,74.57
2019-03-15T04:13:07.986Z,74.42
2019-03-15T04:15:38.945Z,74.73
2019-03-15T04:18:09.884Z,75.15
2019-03-15T04:20:45.836Z,75.33
2019-03-15T04:23:14.045Z,75.80
2019-03-15T04:25:44.934Z,75.93
2019-03-15T04:28:16.631Z,76.10
2019-03-15T04:30:47.532Z,76.21
2019-03-15T04:33:18.447Z,76.01
2019-03-15T04:35:52.777Z,76.23
2019-03-15T04:38:23.708Z,76.40
2019-03-15T04:40:54.602Z,76.51
2019-03-15T04:43:25.595Z,76.53
2019-03-15T04:45:57.062Z,76.47
2019-03-15T04:48:27.983Z,76.48
2019-03-15T04:50:58.870Z,76.63
2019-03-15T04:53:29.781Z,76.68
2019-03-15T04:56:00.684Z,77.10
2019-03-15T04:58:32.365Z,76.91
2019-03-15T05:01:03.271Z,76.65
2019-03-15T05:03:34.187Z,76.41
2019-03-15T05:06:05.078Z,76.08
2019-03-15T05:08:35.995Z,76.62
2019-03-15T05:11:06.893Z,76.78
2019-03-15T05:13:37.835Z,77.12
2019-03-15T05:16:08.721Z,77.33
2019-03-15T05:18:39.669Z,77.10
2019-03-15T05:21:10.576Z,77.04
2019-03-15T05:23:41.497Z,76.67
2019-03-15T05:26:12.394Z,76.45
2019-03-15T05:28:44.174Z,76.38
2019-03-15T05:31:15.063Z,76.13
2019-03-15T05:33:45.985Z,75.92
2019-03-15T05:36:16.916Z,76.46
2019-03-15T05:38:47.795Z,76.53
2019-03-15T05:41:18.681Z,76.48
2019-03-15T05:43:52.934Z,76.53
2019-03-15T05:46:22.259Z,76.90
2019-03-15T05:48:53.264Z,76.70
2019-03-15T05:51:24.305Z,76.24
2019-03-15T05:54:01.850Z,76.41
2019-03-15T05:56:32.879Z,76.10
2019-03-15T05:59:04.865Z,76.21
2019-03-15T06:01:35.848Z,76.03
2019-03-15T06:04:06.900Z,75.79
2019-03-15T06:06:37.919Z,75.79
2019-03-15T06:09:09.005Z,75.72
2019-03-15T06:11:39.976Z,75.51
2019-03-15T06:14:11.040Z,75.43
2019-03-15T06:16:41.989Z,75.27
2019-03-15T06:19:13.033Z,75.11
2019-03-15T06:21:44.029Z,75.01
2019-03-15T06:24:15.098Z,74.82
2019-03-15T06:26:47.649Z,74.74
2019-03-15T06:29:19.173Z,74.48
2019-03-15T06:31:51.056Z,74.28
2019-03-15T06:34:22.082Z,74.27
2019-03-15T06:36:53.053Z,74.25
2019-03-15T06:39:24.109Z,74.20
2019-03-15T06:41:55.063Z,73.99
2019-03-15T06:44:27.179Z,73.70
2019-03-15T06:46:58.450Z,73.50
2019-03-15T06:49:29.460Z,73.43
2019-03-15T06:52:00.430Z,73.46
2019-03-15T06:54:31.521Z,73.26
2019-03-15T06:57:28.435Z,73.35
2019-03-15T06:59:38.151Z,73.09
2019-03-15T07:02:09.167Z,72.53
2019-03-15T07:04:40.237Z,72.42
2019-03-15T07:07:15.157Z,71.58
2019-03-15T07:09:46.153Z,71.36
2019-03-15T07:12:17.153Z,70.94
2019-03-15T07:14:48.290Z,70.90
2019-03-15T07:17:19.363Z,71.01
2019-03-15T07:19:51.390Z,70.72
2019-03-15T07:22:22.469Z,70.00
2019-03-15T07:24:53.468Z,69.14
2019-03-15T07:27:24.535Z,68.71
2019-03-15T07:29:59.818Z,68.73
2019-03-15T07:32:29.351Z,68.81
2019-03-15T07:35:00.310Z,68.76
2019-03-15T07:37:31.391Z,68.87
2019-03-15T07:40:02.360Z,68.73
2019-03-15T07:42:33.421Z,68.83
2019-03-15T07:45:07.471Z,68.98
2019-03-15T07:47:39.587Z,69.07
2019-03-15T07:50:14.958Z,68.17
2019-03-15T07:52:45.999Z,68.43
2019-03-15T07:55:16.987Z,68.29
2019-03-15T07:57:48.005Z,68.26
2019-03-15T08:00:19.227Z,67.95
2019-03-15T08:02:50.330Z,67.44
2019-03-15T08:05:21.330Z,67.28
2019-03-15T08:07:53.957Z,66.98
2019-03-15T08:10:25.043Z,67.00
2019-03-15T08:12:58.637Z,67.07
2019-03-15T08:15:31.356Z,67.20
2019-03-15T08:18:02.304Z,67.39
2019-03-15T08:20:40.398Z,67.74
2019-03-15T08:23:08.472Z,67.75
2019-03-15T08:25:38.538Z,68.06
2019-03-15T08:28:09.422Z,67.98
2019-03-15T08:30:41.984Z,67.99
2019-03-15T08:33:12.868Z,67.85
2019-03-15T08:35:43.760Z,67.31
2019-03-15T08:38:14.664Z,67.12
2019-03-15T08:40:45.572Z,66.97
2019-03-15T08:43:16.464Z,67.03
2019-03-15T08:45:47.419Z,66.98
2019-03-15T08:48:18.300Z,66.33
2019-03-15T08:50:49.243Z,66.04
2019-03-15T08:53:20.140Z,66.00
2019-03-15T08:55:51.045Z,66.60
2019-03-15T08:58:22.555Z,66.91
2019-03-15T09:00:54.560Z,67.03
2019-03-15T09:03:28.194Z,66.96
2019-03-15T09:05:58.035Z,66.25
2019-03-15T09:08:29.701Z,66.50
2019-03-15T09:11:00.616Z,66.58
2019-03-15T09:13:31.488Z,66.88
2019-03-15T09:16:02.542Z,67.09
2019-03-15T09:18:33.408Z,67.28
2019-03-15T09:21:04.307Z,67.79
2019-03-15T09:23:35.185Z,68.05
2019-03-15T09:26:06.102Z,68.06
2019-03-15T09:28:36.981Z,68.28
2019-03-15T09:31:07.929Z,68.46
2019-03-15T09:33:38.813Z,68.81
2019-03-15T09:36:09.730Z,69.48
2019-03-15T09:38:40.526Z,69.63
2019-03-15T09:41:11.449Z,69.52
2019-03-15T09:43:45.244Z,69.76
2019-03-15T09:46:14.944Z,69.30
2019-03-15T09:48:45.764Z,68.73
2019-03-15T09:51:16.683Z,68.73
2019-03-15T09:53:47.578Z,68.98
2019-03-15T09:56:18.488Z,68.97
2019-03-15T09:58:49.388Z,68.85
2019-03-15T10:01:34.189Z,68.81
2019-03-15T10:03:53.775Z,68.97
2019-03-15T10:06:26.143Z,68.42
2019-03-15T10:08:57.931Z,68.73
2019-03-15T10:11:28.862Z,68.58
2019-03-15T10:14:02.177Z,68.31
2019-03-15T10:16:32.388Z,68.61
2019-03-15T10:19:03.351Z,68.46
2019-03-15T10:21:34.272Z,68.21
2019-03-15T10:24:05.175Z,68.25
2019-03-15T10:26:36.122Z,67.77
2019-03-15T10:29:15.226Z,67.69
2019-03-15T10:31:40.554Z,67.64
2019-03-15T10:34:11.453Z,67.80
2019-03-15T10:36:42.379Z,68.45
2019-03-15T10:39:13.276Z,68.33
2019-03-15T10:41:44.274Z,68.86
2019-03-15T10:44:15.186Z,69.38
2019-03-15T10:46:46.924Z,69.37
2019-03-15T10:49:17.850Z,69.27
2019-03-15T10:51:48.803Z,69.19
2019-03-15T10:54:19.719Z,69.29
2019-03-15T10:56:50.630Z,69.33
2019-03-15T10:59:21.514Z,69.01
2019-03-15T11:01:52.472Z,68.78
2019-03-15T11:04:23.389Z,69.70
2019-03-15T11:06:54.287Z,70.64
2019-03-15T11:09:26.067Z,71.19
2019-03-15T11:11:56.975Z,71.05
2019-03-15T11:14:27.863Z,71.37
2019-03-15T11:16:59.705Z,71.16
2019-03-15T11:19:30.591Z,71.04
2019-03-15T11:22:06.883Z,71.07
2019-03-15T11:24:37.756Z,71.15
2019-03-15T11:27:08.673Z,71.37
2019-03-15T11:29:39.549Z,71.77
2019-03-15T11:32:11.289Z,72.24
2019-03-15T11:34:42.164Z,72.90
2019-03-15T11:37:13.080Z,73.69
2019-03-15T11:39:43.955Z,74.04
2019-03-15T11:42:15.143Z,74.49
2019-03-15T11:44:46.014Z,73.91
2019-03-15T11:47:16.965Z,73.55
2019-03-15T11:49:47.876Z,73.41
2019-03-15T11:52:18.764Z,73.61
2019-03-15T11:54:50.022Z,73.56
2019-03-15T11:57:21.118Z,73.44
2019-03-15T11:59:52.007Z,73.37
2019-03-15T12:02:23.861Z,73.87
2019-03-15T12:04:54.736Z,73.57
2019-03-15T12:07:25.640Z,73.61
2019-03-15T12:10:00.641Z,73.92
2019-03-15T12:12:31.559Z,73.89
2019-03-15T12:15:02.448Z,74.24
2019-03-15T12:17:34.159Z,74.48
2019-03-15T12:20:07.744Z,75.05
2019-03-15T12:22:38.659Z,74.80
2019-03-15T12:25:10.636Z,74.92
2019-03-15T12:27:41.541Z,75.14
2019-03-15T12:30:17.074Z,75.15
2019-03-15T12:32:48.886Z,75.33
2019-03-15T12:35:19.786Z,75.44
2019-03-15T12:37:50.711Z,75.54
2019-03-15T12:40:21.613Z,75.51
2019-03-15T12:42:52.536Z,75.55
2019-03-15T12:45:23.437Z,75.17
2019-03-15T12:47:55.192Z,75.89
2019-03-15T12:50:26.088Z,75.51
2019-03-15T12:52:56.996Z,75.10
2019-03-15T12:55:27.875Z,75.50
2019-03-15T12:57:58.866Z,75.49
2019-03-15T13:00:29.738Z,75.43
2019-03-15T13:03:01.577Z,75.78
2019-03-15T13:05:32.464Z,75.28
2019-03-15T13:08:03.374Z,75.57
2019-03-15T13:10:35.042Z,75.23
2019-03-15T13:13:05.945Z,74.84
2019-03-15T13:15:38.874Z,74.56
2019-03-15T13:18:09.811Z,73.82
2019-03-15T13:20:40.690Z,73.81
2019-03-15T13:23:11.608Z,73.48
2019-03-15T13:25:42.490Z,73.30
2019-03-15T13:28:13.408Z,72.90
2019-03-15T13:30:44.294Z,73.08
2019-03-15T13:33:20.760Z,73.41
2019-03-15T13:35:48.694Z,73.48
2019-03-15T13:38:19.544Z,73.66
2019-03-15T13:40:50.451Z,73.68
2019-03-15T13:43:21.361Z,73.74
2019-03-15T13:45:52.277Z,74.15
2019-03-15T13:48:24.009Z,73.91
2019-03-15T13:50:54.897Z,73.94
2019-03-15T13:53:25.802Z,74.13
2019-03-15T13:55:56.694Z,74.05
2019-03-15T13:58:27.624Z,74.73
2019-03-15T14:00:58.504Z,74.87
2019-03-15T14:03:30.254Z,75.20
2019-03-15T14:06:01.160Z,75.50
2019-03-15T14:08:32.078Z,75.38
2019-03-15T14:11:03.910Z,75.36
2019-03-15T14:13:34.850Z,75.50
2019-03-15T14:16:05.747Z,75.54
2019-03-15T14:18:37.542Z,75.76
2019-03-15T14:21:08.432Z,76.11
2019-03-15T14:23:39.354Z,76.49
2019-03-15T14:26:10.294Z,76.81
2019-03-15T14:28:41.220Z,77.04
2019-03-15T14:31:12.103Z,77.06
2019-03-15T14:33:44.635Z,76.82
2019-03-15T14:36:17.091Z,77.06
2019-03-15T14:38:48.227Z,77.34
2019-03-15T14:41:19.319Z,76.94
2019-03-15T14:43:52.795Z,76.86
2019-03-15T14:46:23.616Z,76.52
2019-03-15T14:48:55.526Z,76.74
2019-03-15T14:51:26.418Z,76.43
2019-03-15T14:53:57.340Z,76.13
2019-03-15T14:56:28.218Z,76.14
2019-03-15T14:59:00.096Z,75.47
2019-03-15T15:01:31.001Z,75.41
2019-03-15T15:04:02.758Z,74.96
2019-03-15T15:06:33.658Z,74.79
2019-03-15T15:09:06.197Z,74.41
2019-03-15T15:11:37.970Z,74.14
2019-03-15T15:14:08.901Z,74.09
2019-03-15T15:16:39.791Z,73.72
2019-03-15T15:19:14.100Z,73.01
2019-03-15T15:21:44.152Z,72.89
2019-03-15T15:24:15.094Z,72.63
2019-03-15T15:26:45.984Z,72.61
2019-03-15T15:29:16.895Z,72.16
2019-03-15T15:31:47.780Z,72.36
2019-03-15T15:34:19.541Z,72.30
2019-03-15T15:36:55.740Z,72.25
2019-03-15T15:39:23.053Z,72.35
2019-03-15T15:41:53.946Z,72.06
2019-03-15T15:44:24.871Z,72.02
2019-03-15T15:46:55.754Z,72.09
2019-03-15T15:49:26.736Z,72.02
2019-03-15T15:51:57.697Z,71.83
2019-03-15T15:54:30.672Z,71.92
2019-03-15T15:57:01.563Z,71.64
2019-03-15T15:59:32.480Z,71.78
2019-03-15T16:02:03.365Z,71.77
2019-03-15T16:04:34.313Z,71.59
2019-03-15T16:07:05.202Z,71.42
2019-03-15T16:09:36.112Z,71.49
2019-03-15T16:12:07.003Z,71.43
2019-03-15T16:14:37.920Z,71.45
2019-03-15T16:17:08.815Z,71.49
2019-03-15T16:19:39.822Z,71.67
2019-03-15T16:22:10.688Z,72.00
2019-03-15T16:24:41.619Z,71.94
2019-03-15T16:27:12.588Z,72.29
2019-03-15T16:29:43.508Z,72.34
2019-03-15T16:32:14.415Z,72.33
2019-03-15T16:34:46.984Z,72.14
2019-03-15T16:37:17.891Z,72.01
2019-03-15T16:39:48.813Z,72.26
2019-03-15T16:42:19.706Z,72.12
2019-03-15T16:44:50.649Z,72.00
2019-03-15T16:47:21.539Z,71.95
2019-03-15T16:49:54.343Z,72.07
2019-03-15T16:52:25.243Z,72.08
2019-03-15T16:54:56.176Z,72.21
2019-03-15T16:57:27.073Z,72.25
2019-03-15T16:59:57.997Z,72.30
2019-03-15T17:02:28.893Z,72.33
2019-03-15T17:05:00.687Z,72.42
2019-03-15T17:07:31.569Z,72.54
2019-03-15T17:10:05.073Z,72.42
2019-03-15T17:12:35.970Z,72.59
2019-03-15T17:15:12.549Z,72.65
2019-03-15T17:17:43.437Z,72.50
2019-03-15T17:20:15.449Z,72.36
2019-03-15T17:22:46.382Z,72.35
2019-03-15T17:25:17.400Z,72.34
2019-03-15T17:27:48.287Z,72.21
2019-03-15T17:30:19.220Z,72.17
2019-03-15T17:32:50.173Z,72.24
2019-03-15T17:35:22.663Z,72.61
2019-03-15T17:37:53.558Z,72.42
2019-03-15T17:40:24.495Z,72.44
2019-03-15T17:42:55.464Z,72.70
2019-03-15T17:45:26.393Z,73.06
2019-03-15T17:47:58.384Z,73.25
2019-03-15T17:50:30.194Z,72.96
2019-03-15T17:53:01.088Z,73.15
2019-03-15T17:55:32.017Z,73.26
2019-03-15T17:58:02.914Z,73.10
2019-03-15T18:00:41.535Z,73.61
2019-03-15T18:03:20.724Z,73.96
2019-03-15T18:05:46.074Z,74.04
2019-03-15T18:08:16.988Z,74.19
2019-03-15T18:10:47.921Z,74.88
2019-03-15T18:13:19.743Z,75.19
2019-03-15T18:15:50.671Z,75.73
2019-03-15T18:18:21.570Z,76.03
2019-03-15T18:20:53.344Z,76.34
2019-03-15T18:23:24.243Z,76.74
2019-03-15T18:25:55.173Z,77.49
2019-03-15T18:28:26.076Z,77.46
2019-03-15T18:30:59.257Z,77.74
2019-03-15T18:33:30.966Z,77.87
2019-03-15T18:36:02.769Z,78.37
2019-03-15T18:38:33.666Z,78.43
2019-03-15T18:41:04.687Z,78.56
2019-03-15T18:43:35.585Z,78.96
2019-03-15T18:46:08.310Z,78.87
2019-03-15T18:48:39.200Z,79.51
2019-03-15T18:51:10.955Z,79.67
2019-03-15T18:53:41.837Z,80.05
2019-03-15T18:56:14.742Z,79.85
2019-03-15T18:58:45.348Z,80.21
2019-03-15T19:01:16.256Z,79.97
2019-03-15T19:03:47.136Z,80.12
2019-03-15T19:06:19.057Z,79.53
2019-03-15T19:08:49.942Z,79.45
2019-03-15T19:11:20.862Z,79.37
2019-03-15T19:13:53.450Z,79.33
2019-03-15T19:16:24.372Z,79.31
2019-03-15T19:18:55.265Z,79.47
2019-03-15T19:21:27.801Z,79.37
2019-03-15T19:23:58.771Z,79.55
2019-03-15T19:26:29.680Z,79.56
2019-03-15T19:29:00.570Z,79.87
2019-03-15T19:31:31.486Z,80.17
2019-03-15T19:34:02.389Z,80.20
2019-03-15T19:36:36.075Z,80.52
2019-03-15T19:39:07.183Z,80.80
2019-03-15T19:41:38.101Z,80.70
2019-03-15T19:44:08.980Z,80.82
2019-03-15T19:46:39.897Z,81.07
2019-03-15T19:49:10.874Z,80.70
2019-03-15T19:51:42.208Z,80.64
2019-03-15T19:54:13.102Z,80.84
2019-03-15T19:56:44.123Z,80.96
2019-03-15T19:59:15.021Z,80.63
2019-03-15T20:01:46.005Z,80.72
2019-03-15T20:04:16.903Z,80.64
2019-03-15T20:06:49.883Z,80.61
2019-03-15T20:09:20.593Z,80.67
2019-03-15T20:11:51.501Z,80.51
2019-03-15T20:14:23.988Z,80.40
2019-03-15T20:16:54.908Z,80.25
2019-03-15T20:19:25.875Z,79.78
2019-03-15T20:21:57.701Z,79.67
2019-03-15T20:24:28.581Z,79.43
2019-03-15T20:26:59.481Z,79.32
2019-03-15T20:29:30.389Z,79.01
2019-03-15T20:32:01.453Z,78.81
2019-03-15T20:34:32.332Z,78.78
2019-03-15T20:37:03.296Z,79.03
2019-03-15T20:39:34.186Z,78.97
2019-03-15T20:42:05.197Z,78.83
2019-03-15T20:44:36.081Z,78.79
2019-03-15T20:47:09.076Z,78.88
2019-03-15T20:49:40.517Z,78.54
2019-03-15T20:52:11.565Z,78.33
2019-03-15T20:54:42.460Z,78.26
2019-03-15T20:57:13.370Z,77.91
2019-03-15T20:59:44.670Z,77.97
2019-03-15T21:02:18.431Z,77.95
2019-03-15T21:04:49.642Z,77.75
2019-03-15T21:07:21.444Z,77.77
2019-03-15T21:09:52.337Z,77.60
2019-03-15T21:12:23.261Z,77.68
2019-03-15T21:14:55.728Z,77.57
2019-03-15T21:17:26.652Z,77.57
2019-03-15T21:20:00.715Z,77.63
2019-03-15T21:22:33.527Z,77.42
2019-03-15T21:25:04.875Z,77.43
2019-03-15T21:27:38.251Z,77.52
2019-03-15T21:30:16.962Z,77.27
2019-03-15T21:32:47.948Z,77.32
2019-03-15T21:35:18.830Z,77.28
2019-03-15T21:37:50.833Z,77.62
2019-03-15T21:40:22.607Z,77.91
2019-03-15T21:42:53.527Z,78.12
2019-03-15T21:45:25.013Z,77.82
2019-03-15T21:47:56.012Z,77.85
2019-03-15T21:50:26.899Z,78.22
2019-03-15T21:52:57.837Z,78.25
2019-03-15T21:55:28.738Z,78.18
2019-03-15T21:57:59.637Z,78.46
2019-03-15T22:00:30.526Z,79.02
2019-03-15T22:03:01.440Z,79.39
2019-03-15T22:05:32.329Z,79.30
2019-03-15T22:08:03.258Z,80.04
2019-03-15T22:10:34.146Z,79.95
2019-03-15T22:13:05.065Z,79.66
2019-03-15T22:15:36.886Z,79.81
2019-03-15T22:18:09.481Z,79.64
2019-03-15T22:20:40.363Z,80.01
2019-03-15T22:23:12.962Z,80.16
2019-03-15T22:25:43.914Z,80.34
2019-03-15T22:28:14.826Z,80.64
2019-03-15T22:30:45.721Z,80.41
2019-03-15T22:33:17.358Z,80.22
2019-03-15T22:35:48.232Z,80.65
2019-03-15T22:38:26.283Z,80.71
2019-03-15T22:40:52.596Z,81.01
2019-03-15T22:43:23.510Z,80.94
2019-03-15T22:45:54.397Z,80.71
2019-03-15T22:48:25.316Z,81.05
2019-03-15T22:50:56.200Z,81.11
2019-03-15T22:53:27.160Z,80.88
2019-03-15T22:55:58.040Z,81.04
2019-03-15T22:58:28.950Z,80.75
2019-03-15T23:00:59.823Z,80.86
2019-03-15T23:03:30.805Z,81.10
2019-03-15T23:06:01.691Z,80.98
2019-03-15T23:08:33.433Z,81.29
2019-03-15T23:11:04.488Z,81.18
2019-03-15T23:13:35.399Z,80.81
2019-03-15T23:16:06.284Z,81.05
2019-03-15T23:18:38.249Z,80.92
2019-03-15T23:21:09.056Z,81.03
2019-03-15T23:23:40.824Z,81.12
2019-03-15T23:26:11.714Z,80.99
2019-03-15T23:28:42.716Z,80.99
2019-03-15T23:31:13.593Z,81.39
2019-03-15T23:33:44.496Z,81.30
2019-03-15T23:36:15.372Z,81.23
2019-03-15T23:38:46.330Z,81.11
2019-03-15T23:41:17.212Z,81.30
2019-03-15T23:43:48.124Z,81.63
2019-03-15T23:46:19.018Z,81.18
2019-03-15T23:48:49.937Z,81.32
2019-03-15T23:51:20.824Z,81.14
2019-03-15T23:53:52.601Z,81.05
2019-03-15T23:56:23.480Z,81.87
2019-03-15T23:58:54.457Z,81.89
